Time;durP1;ratioP1;P1;durP2;ratioP2;P2;SDS_P1;SDS_P2;PMS_P1;PMS_P2;Temp;Humidity;BMP_temperature;BMP_pressure;BME280_temperature;BME280_humidity;BME280_pressure;Samples;Min_cycle;Max_cycle;Signal;HPM_P1;HPM_P2
2023/01/23 00:00:07;;;;;;;30.47;24.30;;;;;;;1.29;100.00;103379.19;5274619;28;20055;-72
2023/01/23 00:02:38;;;;;;;37.53;23.77;;;;;;;0.95;100.00;103372.47;5276020;28;20107;-75
2023/01/23 00:05:10;;;;;;;34.20;21.57;;;;;;;1.01;100.00;103368.28;5273366;28;20615;-73
2023/01/23 00:07:41;;;;;;;34.43;23.47;;;;;;;0.92;100.00;103377.56;5273142;28;20425;-76
2023/01/23 00:10:12;;;;;;;35.50;23.40;;;;;;;0.82;100.00;103365.28;5275041;28;20032;-75
2023/01/23 00:12:45;;;;;;;34.80;23.37;;;;;;;0.86;100.00;103356.75;5274385;28;20046;-71
2023/01/23 00:15:16;;;;;;;40.27;24.07;;;;;;;0.90;100.00;103361.16;5273403;28;20146;-77
2023/01/23 00:17:47;;;;;;;32.87;23.27;;;;;;;1.12;100.00;103361.59;5274524;28;20040;-72
2023/01/23 00:20:19;;;;;;;35.57;25.37;;;;;;;1.09;100.00;103366.72;5275282;28;20471;-72
2023/01/23 00:22:50;;;;;;;40.93;23.93;;;;;;;1.15;100.00;103364.25;5274901;28;20027;-74
2023/01/23 00:25:21;;;;;;;34.13;24.43;;;;;;;1.14;100.00;103362.53;5274461;28;20043;-77
2023/01/23 00:27:52;;;;;;;35.37;24.10;;;;;;;1.22;100.00;103364.41;5274893;28;20025;-75
2023/01/23 00:30:24;;;;;;;32.83;24.70;;;;;;;1.16;100.00;103360.84;5273681;28;20391;-77
2023/01/23 00:32:55;;;;;;;37.07;24.33;;;;;;;1.14;100.00;103380.59;5274993;28;20046;-76
2023/01/23 00:35:26;;;;;;;33.70;23.90;;;;;;;1.24;100.00;103385.97;5274877;28;20133;-74
2023/01/23 00:37:58;;;;;;;27.33;22.23;;;;;;;1.07;100.00;103382.16;5273627;28;20024;-75
2023/01/23 00:40:29;;;;;;;31.10;25.03;;;;;;;1.12;100.00;103384.84;5274985;28;20050;-75
2023/01/23 00:43:00;;;;;;;38.13;25.33;;;;;;;1.20;100.00;103393.63;5273980;28;20102;-75
2023/01/23 00:45:32;;;;;;;35.40;24.20;;;;;;;1.23;100.00;103389.34;5274288;28;20101;-76
2023/01/23 00:48:03;;;;;;;35.37;24.17;;;;;;;1.24;100.00;103393.69;5273198;28;20027;-74
2023/01/23 00:50:34;;;;;;;37.83;25.53;;;;;;;1.27;100.00;103399.81;5272735;28;20028;-77
2023/01/23 00:53:06;;;;;;;34.77;24.33;;;;;;;1.27;100.00;103393.75;5272044;28;20430;-72
2023/01/23 00:55:38;;;;;;;32.70;24.33;;;;;;;1.21;100.00;103394.50;5271658;28;20020;-78
2023/01/23 00:58:10;;;;;;;34.30;25.27;;;;;;;1.18;100.00;103390.16;5272686;28;20056;-74
2023/01/23 01:00:41;;;;;;;35.70;25.13;;;;;;;1.22;100.00;103380.75;5275108;28;20113;-75
2023/01/23 01:03:12;;;;;;;32.43;23.90;;;;;;;1.34;100.00;103385.31;5274073;28;20382;-77
2023/01/23 01:05:43;;;;;;;38.23;23.90;;;;;;;1.29;100.00;103381.75;5273314;28;20024;-77
2023/01/23 01:08:15;;;;;;;36.77;25.07;;;;;;;1.32;100.00;103385.28;5272092;28;20017;-77
2023/01/23 01:10:46;;;;;;;34.53;24.57;;;;;;;1.09;100.00;103384.78;5274630;28;20036;-75
2023/01/23 01:13:20;;;;;;;35.00;22.93;;;;;;;1.32;100.00;103392.16;5271973;28;20031;-74
2023/01/23 01:15:52;;;;;;;36.00;23.83;;;;;;;1.26;100.00;103389.41;5273618;28;20025;-72
2023/01/23 01:18:23;;;;;;;35.80;24.33;;;;;;;1.30;100.00;103389.53;5271808;28;20068;-77
2023/01/23 01:20:55;;;;;;;30.13;21.83;;;;;;;1.17;100.00;103384.97;5273057;28;20101;-77
2023/01/23 01:23:26;;;;;;;36.47;24.57;;;;;;;1.30;100.00;103378.31;5274574;28;20101;-75
2023/01/23 01:25:58;;;;;;;35.53;24.07;;;;;;;1.34;100.00;103385.31;5275189;28;20060;-71
2023/01/23 01:28:32;;;;;;;32.10;23.00;;;;;;;1.25;100.00;103385.09;5273910;28;20020;-73
2023/01/23 01:31:12;;;;;;;30.83;22.80;;;;;;;1.29;100.00;103405.00;5274779;28;20111;-76
2023/01/23 01:33:44;;;;;;;31.90;23.03;;;;;;;1.16;100.00;103402.16;5274427;28;20021;-77
2023/01/23 01:36:17;;;;;;;35.03;24.87;;;;;;;1.30;100.00;103398.97;5272524;28;20044;-78
2023/01/23 01:38:49;;;;;;;38.80;25.13;;;;;;;1.34;100.00;103411.13;5272064;28;20048;-75
2023/01/23 01:41:21;;;;;;;33.37;24.63;;;;;;;1.27;100.00;103410.13;5274275;28;20031;-78
2023/01/23 01:43:55;;;;;;;31.40;23.87;;;;;;;1.29;100.00;103413.59;5271407;28;20483;-77
2023/01/23 01:46:27;;;;;;;;;;;;;;;1.47;100.00;103411.38;5273360;28;20032;-75
2023/01/23 01:49:01;;;;;;;31.37;22.03;;;;;;;1.23;100.00;103408.31;5274458;28;19969;-77
2023/01/23 01:51:39;;;;;;;33.15;22.48;;;;;;;1.24;100.00;103404.03;5271967;28;20048;-75
2023/01/23 01:54:27;;;;;;;32.33;22.60;;;;;;;1.17;100.00;103409.03;5273385;28;20031;-79
2023/01/23 01:57:21;;;;;;;36.30;22.53;;;;;;;1.10;100.00;103407.16;5272783;28;20388;-74
2023/01/23 02:00:11;;;;;;;29.77;21.67;;;;;;;0.96;100.00;103397.41;5272691;28;20081;-76
2023/01/23 02:03:01;;;;;;;35.47;23.33;;;;;;;0.96;100.00;103400.00;5274297;28;20031;-78
2023/01/23 02:05:38;;;;;;;34.67;22.63;;;;;;;1.08;100.00;103393.38;5273167;28;20020;-73
2023/01/23 02:08:15;;;;;;;31.90;23.27;;;;;;;1.01;100.00;103386.34;5256604;28;20025;-78
2023/01/23 02:10:47;;;;;;;32.63;23.70;;;;;;;1.06;100.00;103392.47;5273379;28;20024;-75
2023/01/23 02:13:18;;;;;;;32.23;22.37;;;;;;;1.08;100.00;103404.56;5271933;28;20475;-77
2023/01/23 02:15:50;;;;;;;39.40;24.53;;;;;;;1.02;100.00;103393.22;5272187;28;20042;-78
2023/01/23 02:18:22;;;;;;;34.20;22.90;;;;;;;0.95;100.00;103398.25;5272030;28;20052;-73
2023/01/23 02:20:56;;;;;;;38.87;24.00;;;;;;;0.87;100.00;103394.66;5273781;28;20417;-78
2023/01/23 02:23:41;;;;;;;29.92;22.65;;;;;;;1.10;100.00;103399.41;5271309;28;20536;-76
2023/01/23 02:26:16;;;;;;;37.47;23.77;;;;;;;0.90;100.00;103392.13;5273744;28;20024;-77
2023/01/23 02:28:51;;;;;;;32.67;24.00;;;;;;;1.13;100.00;103402.09;5275159;28;20448;-77
2023/01/23 02:31:22;;;;;;;32.45;21.92;;;;;;;1.00;100.00;103388.03;5277148;28;20432;-76
2023/01/23 02:33:56;;;;;;;32.03;23.53;;;;;;;1.18;100.00;103399.59;5276861;28;20022;-76
2023/01/23 02:36:31;;;;;;;36.67;25.08;;;;;;;1.18;100.00;103399.59;5276328;28;20533;-78
2023/01/23 02:39:08;;;;;;;37.28;24.40;;;;;;;1.19;100.00;103402.22;5277078;28;20056;-73
2023/01/23 02:41:46;;;;;;;39.57;24.90;;;;;;;1.13;100.00;103399.50;5276821;28;20032;-75
2023/01/23 02:44:20;;;;;;;31.37;22.70;;;;;;;1.20;100.00;103403.94;5276689;28;20545;-75
2023/01/23 02:46:56;;;;;;;31.15;22.00;;;;;;;1.22;100.00;103405.69;5277067;28;20475;-75
2023/01/23 02:49:27;;;;;;;34.03;22.80;;;;;;;1.14;100.00;103392.63;5277123;28;20041;-78
2023/01/23 02:51:59;;;;;;;38.73;23.27;;;;;;;1.23;100.00;103402.25;5274961;28;20123;-77
2023/01/23 02:54:30;;;;;;;34.03;23.03;;;;;;;0.96;100.00;103392.25;5275226;28;20060;-73
2023/01/23 02:57:02;;;;;;;41.60;25.07;;;;;;;0.92;100.00;103395.63;5276957;28;20028;-77
2023/01/23 03:02:23;;;;;;;37.93;24.17;;;;;;;1.23;100.00;103391.94;5276885;28;20259;-72
2023/01/23 03:04:54;;;;;;;34.17;24.13;;;;;;;1.26;100.00;103398.03;5276734;28;20046;-77
2023/01/23 03:07:25;;;;;;;31.90;22.67;;;;;;;1.26;100.00;103403.22;5276341;28;20113;-78
2023/01/23 03:09:57;;;;;;;33.07;21.83;;;;;;;1.13;100.00;103396.94;5277101;28;20586;-79
2023/01/23 03:12:28;;;;;;;36.37;22.50;;;;;;;1.17;100.00;103397.88;5276030;28;20028;-76
2023/01/23 03:15:00;;;;;;;32.67;21.37;;;;;;;1.14;100.00;103406.41;5276745;28;20024;-75
2023/01/23 03:17:31;;;;;;;31.70;22.40;;;;;;;1.26;100.00;103400.63;5276142;28;20048;-73
2023/01/23 03:20:04;;;;;;;40.17;23.00;;;;;;;1.03;100.00;103405.31;5274425;28;20119;-75
2023/01/23 03:22:36;;;;;;;35.00;23.30;;;;;;;1.29;100.00;103399.84;5275845;28;20032;-78
2023/01/23 03:25:07;;;;;;;31.13;22.70;;;;;;;1.36;100.00;103399.13;5276226;28;20540;-72
2023/01/23 03:27:39;;;;;;;36.90;24.37;;;;;;;1.30;100.00;103404.16;5276215;28;20036;-75
2023/01/23 03:30:15;;;;;;;30.33;22.33;;;;;;;1.28;100.00;103400.66;5275490;28;20103;-76
2023/01/23 03:32:47;;;;;;;30.57;22.50;;;;;;;1.25;100.00;103416.09;5275710;28;20062;-76
2023/01/23 03:35:19;;;;;;;33.20;23.97;;;;;;;1.32;100.00;103402.47;5274193;28;20137;-78
2023/01/23 03:37:51;;;;;;;36.17;24.97;;;;;;;1.23;100.00;103404.84;5274883;28;20060;-73
2023/01/23 03:43:14;;;;;;;35.37;24.20;;;;;;;1.36;100.00;103416.31;5275815;28;20037;-78
2023/01/23 03:45:45;;;;;;;38.47;24.10;;;;;;;1.35;100.00;103405.13;5274514;28;20527;-73
2023/01/23 03:48:16;;;;;;;37.57;24.70;;;;;;;1.43;100.00;103416.47;5275876;28;20016;-77
2023/01/23 03:50:47;;;;;;;35.27;23.87;;;;;;;1.18;100.00;103400.47;5275306;28;20031;-75
2023/01/23 03:53:19;;;;;;;36.87;23.40;;;;;;;1.46;100.00;103415.66;5273821;28;20109;-78
2023/01/23 03:55:50;;;;;;;36.10;23.53;;;;;;;1.40;100.00;103406.06;5275206;28;20029;-77
2023/01/23 03:58:21;;;;;;;35.03;22.47;;;;;;;1.26;100.00;103412.66;5273486;28;20960;-76
2023/01/23 04:00:53;;;;;;;33.90;22.30;;;;;;;1.26;100.00;103412.66;5275470;28;20024;-78
2023/01/23 04:03:24;;;;;;;30.87;23.20;;;;;;;1.40;100.00;103416.41;5275683;28;20063;-76
2023/01/23 04:05:57;;;;;;;36.90;22.70;;;;;;;1.24;100.00;103415.22;5273477;28;20487;-77
2023/01/23 04:08:28;;;;;;;36.67;21.63;;;;;;;1.08;100.00;103403.69;5275411;28;20122;-75
2023/01/23 04:11:05;;;;;;;36.63;23.97;;;;;;;1.16;100.00;103396.09;5275715;28;20111;-72
2023/01/23 04:13:37;;;;;;;36.67;24.57;;;;;;;1.08;100.00;103403.69;5273496;28;20036;-77
2023/01/23 04:16:08;;;;;;;34.73;24.53;;;;;;;1.26;100.00;103407.50;5274256;28;20490;-76
2023/01/23 04:18:39;;;;;;;36.03;25.07;;;;;;;1.20;100.00;103401.34;5272889;28;20135;-73
2023/01/23 04:21:11;;;;;;;35.80;24.17;;;;;;;1.20;100.00;103408.25;5274198;28;20034;-78
2023/01/23 04:23:42;;;;;;;36.07;24.77;;;;;;;1.17;100.00;103400.44;5275852;28;20496;-76
2023/01/23 04:26:14;;;;;;;37.33;23.97;;;;;;;1.26;100.00;103398.03;5273253;28;20027;-77
2023/01/23 04:28:45;;;;;;;35.17;23.17;;;;;;;1.31;100.00;103405.88;5272890;28;20025;-74
2023/01/23 04:31:16;;;;;;;38.37;24.20;;;;;;;1.39;100.00;103413.78;5273740;28;20060;-76
2023/01/23 04:33:48;;;;;;;36.77;25.70;;;;;;;1.15;100.00;103421.03;5273683;28;20036;-76
2023/01/23 04:36:19;;;;;;;34.90;24.77;;;;;;;1.32;100.00;103417.97;5273716;28;20441;-78
2023/01/23 04:38:50;;;;;;;37.77;23.43;;;;;;;1.01;100.00;103404.41;5273346;28;20126;-74
2023/01/23 04:41:24;;;;;;;36.40;24.47;;;;;;;1.32;100.00;103423.13;5273811;28;20036;-76
2023/01/23 04:44:18;;;;;;;31.85;24.05;;;;;;;1.40;100.00;103434.47;5272849;28;20478;-78
2023/01/23 04:46:49;;;;;;;36.77;23.27;;;;;;;1.43;100.00;103429.38;5273969;28;20391;-79
2023/01/23 04:49:21;;;;;;;33.00;23.77;;;;;;;1.45;100.00;103427.69;5272981;28;20421;-73
2023/01/23 04:51:53;;;;;;;37.47;24.20;;;;;;;1.41;100.00;103423.34;5273045;28;20037;-78
2023/01/23 04:54:24;;;;;;;35.13;24.93;;;;;;;1.44;100.00;103425.09;5273594;28;20028;-77
2023/01/23 04:56:56;;;;;;;34.57;22.60;;;;;;;1.16;100.00;103422.81;5274429;28;20032;-77
2023/01/23 04:59:27;;;;;;;39.77;23.20;;;;;;;1.39;100.00;103425.00;5273224;28;20039;-78
2023/01/23 05:02:01;;;;;;;32.20;23.30;;;;;;;1.13;100.00;103430.50;5273964;28;20061;-77
2023/01/23 05:04:32;;;;;;;31.03;21.40;;;;;;;1.12;100.00;103440.78;5272485;28;20037;-74
2023/01/23 05:07:03;;;;;;;40.83;25.63;;;;;;;1.17;100.00;103440.03;5271996;28;20055;-75
2023/01/23 05:09:34;;;;;;;45.53;25.77;;;;;;;1.25;100.00;103424.72;5273503;28;20051;-78
2023/01/23 05:12:06;;;;;;;32.47;24.77;;;;;;;1.26;100.00;103451.38;5274003;28;20088;-78
2023/01/23 05:14:37;;;;;;;39.17;23.73;;;;;;;1.30;100.00;103442.88;5273510;28;20033;-76
2023/01/23 05:17:08;;;;;;;37.37;24.13;;;;;;;1.25;100.00;103439.31;5272738;28;20045;-77
2023/01/23 05:19:40;;;;;;;40.50;25.67;;;;;;;1.35;100.00;103437.81;5274856;28;20103;-74
2023/01/23 05:22:12;;;;;;;36.10;24.60;;;;;;;1.35;100.00;103435.22;5271708;28;20772;-76
2023/01/23 05:24:43;;;;;;;33.10;23.30;;;;;;;1.17;100.00;103436.59;5273303;28;20094;-74
2023/01/23 05:27:15;;;;;;;37.77;25.80;;;;;;;1.29;100.00;103420.50;5273101;28;20134;-71
2023/01/23 05:29:46;;;;;;;33.63;25.47;;;;;;;1.42;100.00;103445.72;5273435;28;20020;-76
2023/01/23 05:32:17;;;;;;;39.23;25.37;;;;;;;1.45;100.00;103447.47;5274764;28;20074;-77
2023/01/23 05:34:51;;;;;;;39.87;25.57;;;;;;;1.45;100.00;103445.78;5273436;28;20037;-78
2023/01/23 05:37:24;;;;;;;35.75;24.70;;;;;;;1.50;100.00;103452.78;5271482;28;20111;-72
2023/01/23 05:39:56;;;;;;;40.33;25.40;;;;;;;1.39;100.00;103448.25;5274674;28;20459;-78
2023/01/23 05:42:27;;;;;;;36.43;25.10;;;;;;;1.50;100.00;103450.19;5273711;28;20024;-77
2023/01/23 05:44:58;;;;;;;38.53;25.00;;;;;;;1.33;100.00;103437.78;5273525;28;20138;-75
2023/01/23 05:47:30;;;;;;;33.33;24.20;;;;;;;1.52;100.00;103445.94;5273921;28;20103;-77
2023/01/23 05:50:02;;;;;;;36.60;24.77;;;;;;;1.52;100.00;103456.25;5273815;28;20025;-73
2023/01/23 05:52:34;;;;;;;37.13;24.53;;;;;;;1.54;100.00;103459.72;5272838;28;20032;-75
2023/01/23 05:55:06;;;;;;;41.53;26.47;;;;;;;1.61;100.00;103464.19;5272784;28;20086;-76
2023/01/23 05:57:37;;;;;;;33.57;25.00;;;;;;;1.63;100.00;103457.34;5274886;28;20024;-72
2023/01/23 06:00:11;;;;;;;39.73;24.70;;;;;;;1.33;100.00;103466.19;5273913;28;20016;-78
2023/01/23 06:02:43;;;;;;;37.20;24.42;;;;;;;1.22;100.00;103473.72;5274038;28;20036;-76
2023/01/23 06:05:14;;;;;;;37.90;24.67;;;;;;;1.22;100.00;103475.41;5278125;28;20082;-78
2023/01/23 06:07:45;;;;;;;44.23;27.03;;;;;;;1.25;100.00;103459.97;5274906;28;20106;-73
2023/01/23 06:10:17;;;;;;;38.37;25.70;;;;;;;1.30;100.00;103476.44;5276738;28;20029;-77
2023/01/23 06:12:48;;;;;;;39.93;24.97;;;;;;;1.18;100.00;103470.19;5277400;28;20036;-79
2023/01/23 06:15:19;;;;;;;41.53;25.80;;;;;;;1.44;100.00;103471.56;5276416;28;20112;-76
2023/01/23 06:17:50;;;;;;;36.07;25.83;;;;;;;1.30;100.00;103467.00;5274944;28;20048;-78
2023/01/23 06:20:22;;;;;;;42.30;27.63;;;;;;;1.45;100.00;103471.59;5277247;28;20044;-74
2023/01/23 06:22:53;;;;;;;33.40;24.77;;;;;;;1.51;100.00;103470.00;5275736;28;20029;-78
2023/01/23 06:25:24;;;;;;;40.90;25.93;;;;;;;1.49;100.00;103487.16;5277440;28;20029;-77
2023/01/23 06:27:55;;;;;;;40.63;25.13;;;;;;;1.20;100.00;103475.38;5277455;28;20081;-79
2023/01/23 06:30:27;;;;;;;38.33;24.93;;;;;;;1.28;100.00;103475.53;5276630;28;20024;-76
2023/01/23 06:32:59;;;;;;;38.63;25.77;;;;;;;1.27;100.00;103476.38;5277776;28;20062;-77
2023/01/23 06:35:30;;;;;;;40.47;26.10;;;;;;;1.28;100.00;103478.13;5275332;28;20032;-77
2023/01/23 06:38:01;;;;;;;37.37;24.97;;;;;;;1.22;100.00;103472.81;5275167;28;20162;-74
2023/01/23 06:40:33;;;;;;;37.33;25.87;;;;;;;1.42;100.00;103481.00;5276256;28;20028;-73
2023/01/23 06:43:05;;;;;;;40.03;24.70;;;;;;;1.28;100.00;103475.53;5276570;28;20704;-75
2023/01/23 06:45:36;;;;;;;35.73;26.30;;;;;;;1.38;100.00;103485.22;5276741;28;20032;-78
2023/01/23 06:48:07;;;;;;;42.23;27.13;;;;;;;1.13;100.00;103474.38;5275743;28;20112;-71
2023/01/23 06:50:39;;;;;;;38.20;26.27;;;;;;;1.15;100.00;103480.41;5274724;28;20608;-77
2023/01/23 06:53:13;;;;;;;38.63;25.37;;;;;;;1.22;100.00;103484.03;5273691;28;20662;-77
2023/01/23 06:55:44;;;;;;;38.40;23.40;;;;;;;1.17;100.00;103486.50;5276423;28;20078;-74
2023/01/23 06:58:16;;;;;;;33.07;23.93;;;;;;;1.12;100.00;103482.09;5275402;28;20287;-72
2023/01/23 07:00:47;;;;;;;33.80;24.57;;;;;;;1.34;100.00;103488.59;5275356;28;20570;-75
2023/01/23 07:03:18;;;;;;;38.77;24.60;;;;;;;1.11;100.00;103494.09;5276293;28;20035;-77
2023/01/23 07:05:50;;;;;;;38.90;26.30;;;;;;;1.37;100.00;103503.28;5275501;28;20027;-78
2023/01/23 07:08:21;;;;;;;35.87;25.80;;;;;;;1.18;100.00;103495.13;5276400;28;20388;-75
2023/01/23 07:10:53;;;;;;;34.50;24.53;;;;;;;1.43;100.00;103504.28;5276292;28;20108;-76
2023/01/23 07:13:25;;;;;;;35.53;24.83;;;;;;;1.23;100.00;103496.09;5275345;28;20033;-74
2023/01/23 07:15:56;;;;;;;36.13;25.60;;;;;;;1.14;100.00;103509.66;5276248;28;20384;-76
2023/01/23 07:18:29;;;;;;;35.77;25.00;;;;;;;1.16;100.00;103508.00;5274322;28;20110;-74
2023/01/23 07:21:04;;;;;;;39.10;25.40;;;;;;;1.37;100.00;103509.31;5275384;28;20044;-74
2023/01/23 07:23:35;;;;;;;34.63;25.27;;;;;;;1.37;100.00;103506.75;5265981;28;20056;-79
2023/01/23 07:26:08;;;;;;;32.70;23.83;;;;;;;1.29;100.00;103514.28;5275750;28;20025;-75
2023/01/23 07:28:40;;;;;;;35.37;24.17;;;;;;;1.24;100.00;103509.88;5273041;28;20032;-75
2023/01/23 07:31:11;;;;;;;36.77;24.90;;;;;;;1.24;100.00;103525.38;5275606;28;20107;-79
2023/01/23 07:33:44;;;;;;;36.93;25.07;;;;;;;1.23;100.00;103527.06;5266010;28;20139;-75
2023/01/23 07:36:17;;;;;;;37.57;26.53;;;;;;;1.45;100.00;103523.25;5272823;28;20029;-79
2023/01/23 07:38:48;;;;;;;34.53;24.40;;;;;;;1.50;100.00;103527.66;5275022;28;20032;-77
2023/01/23 07:41:19;;;;;;;33.53;24.67;;;;;;;1.36;100.00;103532.53;5275733;28;20036;-76
2023/01/23 07:43:51;;;;;;;33.83;24.23;;;;;;;1.52;100.00;103538.91;5274812;28;20585;-79
2023/01/23 07:46:24;;;;;;;35.77;25.03;;;;;;;1.58;100.00;103541.63;5265638;28;20486;-78
2023/01/23 07:48:55;;;;;;;32.60;25.10;;;;;;;1.56;100.00;103532.97;5273494;28;20028;-77
2023/01/23 07:51:27;;;;;;;33.57;24.87;;;;;;;1.62;100.00;103545.16;5270276;28;20048;-73
2023/01/23 07:53:58;;;;;;;34.80;24.40;;;;;;;1.59;100.00;103540.78;5271910;28;20124;-74
2023/01/23 07:56:29;;;;;;;32.30;24.63;;;;;;;1.52;100.00;103550.09;5272559;28;20040;-73
2023/01/23 07:59:00;;;;;;;39.20;27.00;;;;;;;1.45;100.00;103554.25;5270964;28;20029;-74
2023/01/23 08:01:32;;;;;;;35.10;26.10;;;;;;;1.47;100.00;103535.34;5272761;28;20101;-72
2023/01/23 08:04:03;;;;;;;33.90;24.07;;;;;;;1.63;100.00;103557.22;5271173;28;20037;-73
2023/01/23 08:06:35;;;;;;;38.30;26.07;;;;;;;1.65;100.00;103559.00;5269822;28;20112;-75
2023/01/23 08:09:06;;;;;;;31.40;23.03;;;;;;;1.46;100.00;103542.22;5272369;28;20055;-76
2023/01/23 08:11:38;;;;;;;33.77;23.70;;;;;;;1.52;100.00;103554.41;5269750;28;20059;-80
2023/01/23 08:14:10;;;;;;;36.03;23.70;;;;;;;1.56;100.00;103535.53;5271414;28;20024;-75
2023/01/23 08:16:41;;;;;;;35.60;24.33;;;;;;;1.64;100.00;103551.22;5271167;28;20032;-77
2023/01/23 08:19:12;;;;;;;35.17;25.17;;;;;;;1.49;100.00;103560.38;5271868;28;20116;-77
2023/01/23 08:21:45;;;;;;;31.63;23.93;;;;;;;1.33;100.00;103548.81;5268763;28;20035;-80
2023/01/23 08:24:16;;;;;;;31.87;24.33;;;;;;;1.33;100.00;103546.22;5269566;28;20032;-75
2023/01/23 08:26:47;;;;;;;32.57;22.73;;;;;;;1.26;100.00;103554.66;5272853;28;20371;-79
2023/01/23 08:29:18;;;;;;;35.97;24.30;;;;;;;1.52;100.00;103550.09;5272902;28;20028;-80
2023/01/23 08:31:53;;;;;;;41.37;25.47;;;;;;;1.56;100.00;103556.22;5273440;28;20569;-81
2023/01/23 08:34:24;;;;;;;;;;;;;;;1.71;100.00;103565.16;5270432;28;20078;-80
2023/01/23 08:37:54;;;;;;;35.60;25.03;;;;;;;-150.27;100.00;61272.81;5269437;28;19956;-77
2023/01/23 08:41:24;;;;;;;38.37;23.23;;;;;;;-150.27;100.00;61272.81;5255867;28;20039;-78
2023/01/23 08:44:54;;;;;;;35.43;24.80;;;;;;;-150.27;100.00;61272.81;5270213;28;20490;-77
2023/01/23 08:48:24;;;;;;;36.27;24.87;;;;;;;-150.27;100.00;61272.81;5262535;28;20033;-79
2023/01/23 08:51:59;;;;;;;34.10;23.23;;;;;;;-150.27;100.00;61272.81;5271775;28;20029;-78
2023/01/23 08:55:29;;;;;;;32.90;24.00;;;;;;;-150.27;100.00;61272.81;5272351;28;20033;-72
2023/01/23 08:58:59;;;;;;;34.20;23.57;;;;;;;-150.27;100.00;61272.81;5272986;28;20020;-82
2023/01/23 09:02:29;;;;;;;33.20;23.70;;;;;;;-150.27;100.00;61272.81;5273212;28;20481;-80
2023/01/23 09:05:59;;;;;;;35.00;23.90;;;;;;;-150.27;100.00;61272.81;5253183;28;20047;-76
2023/01/23 09:09:29;;;;;;;29.30;23.37;;;;;;;-150.27;100.00;61272.81;5253706;28;20558;-73
2023/01/23 09:12:59;;;;;;;30.17;23.63;;;;;;;-150.27;100.00;61272.81;5273645;28;20041;-81
2023/01/23 09:16:29;;;;;;;32.53;24.17;;;;;;;-150.27;100.00;61272.81;5272680;28;20086;-80
2023/01/23 09:19:59;;;;;;;34.17;24.43;;;;;;;-150.27;100.00;61272.81;5273912;28;20607;-71
2023/01/23 09:23:29;;;;;;;33.80;24.77;;;;;;;-150.27;100.00;61272.81;5271216;28;20115;-76
2023/01/23 09:27:02;;;;;;;33.90;23.60;;;;;;;-150.27;100.00;61272.81;5273445;28;20107;-76
2023/01/23 09:30:33;;;;;;;36.47;25.23;;;;;;;-150.27;100.00;61272.81;5272164;28;20082;-74
2023/01/23 09:34:02;;;;;;;32.23;23.50;;;;;;;-150.27;100.00;61272.81;5259086;28;20063;-70
2023/01/23 09:37:58;;;;;;;33.07;23.77;;;;;;;-150.27;100.00;61272.81;5264709;28;20064;-71
2023/01/23 09:41:25;;;;;;;33.80;22.83;;;;;;;-150.27;100.00;61272.81;5269202;28;20049;-71
2023/01/23 09:45:01;;;;;;;33.97;25.00;;;;;;;-150.27;100.00;61272.81;5270933;28;20040;-71
2023/01/23 09:48:44;;;;;;;30.20;23.70;;;;;;;-150.27;100.00;61272.81;5267394;28;20037;-70
2023/01/23 09:52:21;;;;;;;30.20;23.10;;;;;;;-150.27;100.00;61272.81;5268787;28;20305;-71
2023/01/23 09:54:58;;;;;;;30.23;23.52;;;;;;;1.85;100.00;103594.72;5269408;28;20025;-70
2023/01/23 09:57:35;;;;;;;33.27;24.23;;;;;;;1.92;100.00;103606.94;5268477;28;20106;-72
2023/01/23 10:00:13;;;;;;;31.53;22.60;;;;;;;1.83;100.00;103606.78;5268513;28;20798;-74
2023/01/23 10:02:45;;;;;;;27.70;22.27;;;;;;;1.79;100.00;103600.66;5269579;28;20024;-75
2023/01/23 10:05:19;;;;;;;31.47;23.63;;;;;;;1.83;100.00;103606.78;5269081;28;20059;-73
2023/01/23 10:08:35;;;;;;;30.70;23.13;;;;;;;2.01;100.00;103605.38;5270254;28;20085;-72
2023/01/23 10:11:19;;;;;;;27.02;21.92;;;;;;;1.87;100.00;103605.13;5268311;28;20040;-74
2023/01/23 10:14:02;;;;;;;30.93;21.67;;;;;;;1.89;100.00;103606.88;5269446;28;20023;-70
2023/01/23 10:17:01;;;;;;;28.00;21.30;;;;;;;1.84;100.00;103603.34;5269090;28;21368;-71
2023/01/23 10:19:57;;;;;;;31.77;22.30;;;;;;;2.01;100.00;103597.63;5268148;28;20040;-71
2023/01/23 10:22:49;;;;;;;30.60;21.90;;;;;;;1.88;100.00;103593.94;5267903;28;20025;-74
2023/01/23 10:25:25;;;;;;;27.77;21.73;;;;;;;2.01;100.00;103608.84;5265822;28;20070;-72
2023/01/23 10:28:20;;;;;;;29.10;21.70;;;;;;;1.89;100.00;103582.75;5270993;28;20604;-72
2023/01/23 10:30:55;;;;;;;;;;;;;;;2.15;100.00;103614.31;5268343;28;20043;-76
2023/01/23 10:33:46;;;;;;;33.73;23.23;;;;;;;2.01;100.00;103592.47;5285872;28;20378;-73
2023/01/23 10:36:48;;;;;;;33.10;22.13;;;;;;;2.06;100.00;103601.19;5283989;28;20036;-68
2023/01/23 10:39:26;;;;;;;31.93;22.90;;;;;;;2.09;100.00;103601.28;5270372;28;20024;-68
2023/01/23 10:41:57;;;;;;;30.23;22.03;;;;;;;1.99;100.00;103589.00;5271003;28;20037;-76
2023/01/23 10:44:29;;;;;;;28.33;21.77;;;;;;;2.04;100.00;103584.78;5271365;28;20077;-76
2023/01/23 10:47:03;;;;;;;25.80;20.63;;;;;;;2.20;100.00;103596.31;5271664;28;20037;-74
2023/01/23 10:49:43;;;;;;;30.90;23.42;;;;;;;2.12;100.00;103591.00;5266095;28;20596;-69
2023/01/23 10:52:36;;;;;;;31.67;21.50;;;;;;;2.12;100.00;103596.16;5267366;28;20021;-75
2023/01/23 10:55:23;;;;;;;27.33;21.87;;;;;;;1.88;100.00;103562.91;5264278;28;20493;-81
2023/01/23 10:57:57;;;;;;;28.97;22.43;;;;;;;2.04;100.00;103597.72;5265626;28;20036;-73
2023/01/23 11:00:35;;;;;;;28.63;21.85;;;;;;;1.98;100.00;103595.88;5267125;28;20357;-75
2023/01/23 11:03:27;;;;;;;27.17;20.97;;;;;;;2.03;100.00;103603.72;5266376;28;20120;-77
2023/01/23 11:06:07;;;;;;;26.40;21.93;;;;;;;2.08;100.00;103604.69;5266938;28;20154;-76
2023/01/23 11:08:50;;;;;;;29.03;22.13;;;;;;;2.04;100.00;103601.16;5266905;28;21356;-73
2023/01/23 11:11:25;;;;;;;26.43;21.00;;;;;;;2.05;100.00;103592.59;5263511;28;20093;-71
2023/01/23 11:14:07;;;;;;;29.95;22.38;;;;;;;2.15;100.00;103591.03;5265543;28;20081;-72
2023/01/23 11:16:39;;;;;;;29.13;22.90;;;;;;;2.05;100.00;103583.94;5263288;28;20029;-72
2023/01/23 11:19:18;;;;;;;29.63;22.53;;;;;;;2.10;100.00;103590.09;5265557;28;20517;-72
2023/01/23 11:21:52;;;;;;;27.67;21.80;;;;;;;2.17;100.00;103593.66;5265783;28;20028;-71
2023/01/23 11:24:23;;;;;;;29.53;20.80;;;;;;;2.07;100.00;103586.56;5265047;28;20534;-72
2023/01/23 11:27:05;;;;;;;26.73;20.07;;;;;;;2.17;100.00;103597.13;5265446;28;20023;-71
2023/01/23 11:30:07;;;;;;;24.60;19.60;;;;;;;2.24;100.00;103592.94;5265560;28;20592;-74
2023/01/23 11:32:48;;;;;;;26.73;20.40;;;;;;;2.22;100.00;103591.16;5265275;28;20067;-73
2023/01/23 11:35:28;;;;;;;25.20;19.57;;;;;;;2.21;100.00;103582.53;5271464;28;20029;-74
2023/01/23 11:38:03;;;;;;;26.83;18.17;;;;;;;2.21;100.00;103576.50;5273740;28;20036;-71
2023/01/23 11:40:35;;;;;;;24.95;20.38;;;;;;;2.22;100.00;103567.88;5275476;28;20082;-74
2023/01/23 11:43:19;;;;;;;26.50;20.70;;;;;;;2.23;100.00;103574.81;5271152;28;20028;-74
2023/01/23 11:45:56;;;;;;;25.57;20.23;;;;;;;2.29;100.00;103580.97;5268342;28;20055;-72
2023/01/23 11:48:58;;;;;;;23.70;19.70;;;;;;;2.34;100.00;103586.22;5268248;28;20025;-73
2023/01/23 11:51:49;;;;;;;25.87;19.83;;;;;;;2.33;100.00;103583.63;5271182;28;20036;-72
2023/01/23 11:54:50;;;;;;;22.97;18.83;;;;;;;2.31;100.00;103581.00;5274678;28;20032;-70
2023/01/23 11:57:59;;;;;;;25.23;19.70;;;;;;;2.38;100.00;103598.41;5271314;28;20025;-72
2023/01/23 12:01:07;;;;;;;26.50;20.47;;;;;;;2.48;100.00;103599.44;5265009;28;20037;-76
2023/01/23 12:04:00;;;;;;;25.77;19.87;;;;;;;2.44;100.00;103594.19;5274847;28;20036;-77
2023/01/23 12:06:47;;;;;;;26.37;18.67;;;;;;;2.37;100.00;103583.72;5267784;28;20035;-74
2023/01/23 12:09:20;;;;;;;22.13;18.27;;;;;;;2.42;100.00;103579.50;5273249;28;20494;-76